Aviation Digital Data Service (ADDS)

Output produced by METARs form (1537 UTC 29 April 2017)
found at http://aviationweather.gov/adds/metars/
 
METAR text: KCVC 291515Z AUTO 00000KT 10SM CLR 28/20 A3017 RMK AO2
Conditions at: KCVC (COVINGTON MUNI , GA, US) observed 1515 UTC 29 April 2017
Temperature: 28.0°C (82°F)
Dewpoint: 20.0°C (68°F) [RH = 62%]
Pressure (altimeter): 30.17 inches Hg (1021.8 mb)
Winds: calm
Visibility: 10 or more miles (16+ km)
Ceiling: at least 12,000 feet AGL
Clouds: sky clear below 12,000 feet AGL
Weather: automated observation with no human augmentation;
there may or may not be significant weather present at this time